createdAt,value
2022-11-28T00:01:18.717Z,5.10
2022-11-28T00:03:45.426Z,5.10
2022-11-28T00:06:11.993Z,5.10
2022-11-28T00:08:38.571Z,5.00
2022-11-28T00:11:06.636Z,5.00
2022-11-28T00:13:33.673Z,5.00
2022-11-28T00:16:01.808Z,4.90
2022-11-28T00:18:29.157Z,4.90
2022-11-28T00:21:04.703Z,5.00
2022-11-28T00:23:31.906Z,5.00
2022-11-28T00:25:59.977Z,5.00
2022-11-28T00:28:26.388Z,5.00
2022-11-28T00:30:52.914Z,4.90
2022-11-28T00:33:21.764Z,4.90
2022-11-28T00:35:48.253Z,4.80
2022-11-28T00:38:14.714Z,4.80
2022-11-28T00:40:41.246Z,4.90
2022-11-28T00:43:07.724Z,4.80
2022-11-28T00:45:34.286Z,4.80
2022-11-28T00:48:00.769Z,4.80
2022-11-28T00:50:27.343Z,4.80
2022-11-28T00:52:53.840Z,4.80
2022-11-28T00:55:20.269Z,4.80
2022-11-28T00:57:46.701Z,4.70
2022-11-28T01:00:13.839Z,4.70
2022-11-28T01:02:40.308Z,4.70
2022-11-28T01:05:07.200Z,4.70
2022-11-28T01:07:34.234Z,4.70
2022-11-28T01:10:00.730Z,4.60
2022-11-28T01:12:27.196Z,4.60
2022-11-28T01:14:53.938Z,4.60
2022-11-28T01:17:20.438Z,4.60
2022-11-28T01:19:46.908Z,4.50
2022-11-28T01:22:13.494Z,4.40
2022-11-28T01:24:40.099Z,4.50
2022-11-28T01:27:08.138Z,4.60
2022-11-28T01:29:34.565Z,4.50
2022-11-28T01:32:01.041Z,4.60
2022-11-28T01:34:27.553Z,4.50
2022-11-28T01:36:54.065Z,4.50
2022-11-28T01:39:20.516Z,4.40
2022-11-28T01:41:46.944Z,4.50
2022-11-28T01:44:15.332Z,4.50
2022-11-28T01:46:42.423Z,4.40
2022-11-28T01:49:14.289Z,4.50
2022-11-28T01:51:42.124Z,4.40
2022-11-28T01:54:08.568Z,4.40
2022-11-28T01:56:51.114Z,4.40
2022-11-28T01:59:19.363Z,4.40
2022-11-28T02:01:46.415Z,4.30
2022-11-28T02:04:14.166Z,4.20
2022-11-28T02:06:41.427Z,4.20
2022-11-28T02:09:15.980Z,4.20
2022-11-28T02:12:00.918Z,4.20
2022-11-28T02:14:55.064Z,4.20
2022-11-28T02:17:35.433Z,4.20
2022-11-28T02:20:41.846Z,4.20
2022-11-28T02:23:22.420Z,4.20
2022-11-28T02:26:19.764Z,4.20
2022-11-28T02:29:13.663Z,4.20
2022-11-28T02:32:09.865Z,4.10
2022-11-28T02:34:58.907Z,4.10
2022-11-28T02:37:59.128Z,4.10
2022-11-28T02:40:33.843Z,4.00
2022-11-28T02:43:29.306Z,4.00
2022-11-28T02:46:13.017Z,4.00
2022-11-28T02:48:50.780Z,4.00
2022-11-28T02:51:27.084Z,3.90
2022-11-28T02:53:55.126Z,3.90
2022-11-28T02:56:24.384Z,3.90
2022-11-28T02:58:50.890Z,3.90
2022-11-28T03:01:21.551Z,3.90
2022-11-28T03:03:58.352Z,3.80
2022-11-28T03:06:44.211Z,3.80
2022-11-28T03:09:37.465Z,3.80
2022-11-28T03:12:33.923Z,3.80
2022-11-28T03:15:09.165Z,3.80
2022-11-28T03:18:20.200Z,3.80
2022-11-28T03:21:16.740Z,3.80
2022-11-28T03:23:48.653Z,3.80
2022-11-28T03:26:27.565Z,3.80
2022-11-28T03:29:12.599Z,3.80
2022-11-28T03:31:42.521Z,3.80
2022-11-28T03:34:14.072Z,3.80
2022-11-28T03:36:46.583Z,3.80
2022-11-28T03:39:17.611Z,3.80
2022-11-28T03:41:55.101Z,3.80
2022-11-28T03:44:27.956Z,3.80
2022-11-28T03:46:58.786Z,3.70
2022-11-28T03:49:29.841Z,3.80
2022-11-28T03:52:02.617Z,3.80
2022-11-28T03:54:37.030Z,3.80
2022-11-28T03:57:19.672Z,3.70
2022-11-28T03:59:49.080Z,3.80
2022-11-28T04:02:34.147Z,3.70
2022-11-28T04:05:07.295Z,3.70
2022-11-28T04:07:41.782Z,3.70
2022-11-28T04:10:20.706Z,3.70
2022-11-28T04:13:13.381Z,3.70
2022-11-28T04:15:49.076Z,3.60
2022-11-28T04:18:27.046Z,3.60
2022-11-28T04:21:09.054Z,3.60
2022-11-28T04:23:37.813Z,3.60
2022-11-28T04:26:14.469Z,3.60
2022-11-28T04:28:41.867Z,3.60
2022-11-28T04:31:09.711Z,3.60
2022-11-28T04:33:40.171Z,3.60
2022-11-28T04:36:08.386Z,3.60
2022-11-28T04:38:35.880Z,3.60
2022-11-28T04:41:10.922Z,3.60
2022-11-28T04:43:43.406Z,3.60
2022-11-28T04:46:14.770Z,3.70
2022-11-28T04:48:41.629Z,3.70
2022-11-28T04:51:24.321Z,3.80
2022-11-28T04:54:00.877Z,3.80
2022-11-28T04:56:33.208Z,3.80
2022-11-28T04:59:00.471Z,3.90
2022-11-28T05:01:30.775Z,3.90
2022-11-28T05:03:57.344Z,3.90
2022-11-28T05:06:33.461Z,3.90
2022-11-28T05:09:00.232Z,3.90
2022-11-28T05:11:27.332Z,4.00
2022-11-28T05:13:54.868Z,4.00
2022-11-28T05:16:21.723Z,4.10
2022-11-28T05:18:48.671Z,4.10
2022-11-28T05:21:15.115Z,4.10
2022-11-28T05:23:43.810Z,4.10
2022-11-28T05:26:13.239Z,4.20
2022-11-28T05:28:39.774Z,4.10
2022-11-28T05:31:06.321Z,4.10
2022-11-28T05:33:33.239Z,4.20
2022-11-28T05:36:07.414Z,4.10
2022-11-28T05:38:38.117Z,4.20
2022-11-28T05:41:05.111Z,4.20
2022-11-28T05:43:31.837Z,4.20
2022-11-28T05:45:58.589Z,4.20
2022-11-28T05:48:25.266Z,4.30
2022-11-28T05:50:51.907Z,4.30
2022-11-28T05:53:20.236Z,4.30
2022-11-28T05:55:47.691Z,4.30
2022-11-28T05:58:14.598Z,4.30
2022-11-28T06:00:41.078Z,4.30
2022-11-28T06:03:07.554Z,4.30
2022-11-28T06:05:43.111Z,4.30
2022-11-28T06:08:12.177Z,4.30
2022-11-28T06:10:38.625Z,4.30
2022-11-28T06:13:05.466Z,4.20
2022-11-28T06:15:37.536Z,4.30
2022-11-28T06:18:04.566Z,4.20
2022-11-28T06:20:31.025Z,4.20
2022-11-28T06:22:57.480Z,4.10
2022-11-28T06:25:23.928Z,4.10
2022-11-28T06:27:50.438Z,4.10
2022-11-28T06:30:17.068Z,4.00
2022-11-28T06:32:44.557Z,4.00
2022-11-28T06:35:11.455Z,4.00
2022-11-28T06:37:37.919Z,3.90
2022-11-28T06:40:05.171Z,3.90
2022-11-28T06:42:31.631Z,3.90
2022-11-28T06:44:58.096Z,3.90
2022-11-28T06:47:24.645Z,3.80
2022-11-28T06:49:51.081Z,3.80
2022-11-28T06:52:17.543Z,3.80
2022-11-28T06:54:44.630Z,3.80
2022-11-28T06:57:11.239Z,3.80
2022-11-28T06:59:37.704Z,3.80
2022-11-28T07:02:07.457Z,3.80
2022-11-28T07:04:34.338Z,3.70
2022-11-28T07:07:00.788Z,3.70
2022-11-28T07:09:27.408Z,3.80
2022-11-28T07:11:55.369Z,3.80
2022-11-28T07:14:22.124Z,3.90
2022-11-28T07:16:49.272Z,3.90
2022-11-28T07:19:15.994Z,3.90
2022-11-28T07:21:42.550Z,3.90
2022-11-28T07:24:09.003Z,3.90
2022-11-28T07:26:38.211Z,4.00
2022-11-28T07:29:06.913Z,4.00
2022-11-28T07:31:33.767Z,4.00
2022-11-28T07:34:05.605Z,4.10
2022-11-28T07:36:33.537Z,4.10
2022-11-28T07:39:01.549Z,4.10
2022-11-28T07:41:28.992Z,4.20
2022-11-28T07:43:58.120Z,4.20
2022-11-28T07:46:26.202Z,4.30
2022-11-28T07:48:52.719Z,4.30
2022-11-28T07:51:24.766Z,4.40
2022-11-28T07:53:51.385Z,4.40
2022-11-28T07:56:21.524Z,4.50
2022-11-28T07:58:48.474Z,4.40
2022-11-28T08:01:20.214Z,4.40
2022-11-28T08:03:47.006Z,4.40
2022-11-28T08:06:17.680Z,4.40
2022-11-28T08:08:46.981Z,4.40
2022-11-28T08:11:14.917Z,4.40
2022-11-28T08:13:42.173Z,4.60
2022-11-28T08:16:17.609Z,4.50
2022-11-28T08:18:44.843Z,4.50
2022-11-28T08:21:14.250Z,4.50
2022-11-28T08:23:41.106Z,4.60
2022-11-28T08:26:09.370Z,4.70
2022-11-28T08:28:36.690Z,4.60
2022-11-28T08:31:18.110Z,4.70
2022-11-28T08:33:46.474Z,4.80
2022-11-28T08:36:14.783Z,4.90
2022-11-28T08:38:47.018Z,4.90
2022-11-28T08:41:23.075Z,4.90
2022-11-28T08:43:50.036Z,4.80
2022-11-28T08:46:20.613Z,4.80
2022-11-28T08:48:48.583Z,4.80
2022-11-28T08:51:21.135Z,4.90
2022-11-28T08:53:49.478Z,5.10
2022-11-28T08:56:16.473Z,5.30
2022-11-28T09:02:27.975Z,5.40
2022-11-28T09:04:54.273Z,5.50
2022-11-28T09:07:20.842Z,5.30
2022-11-28T09:09:47.593Z,5.50
2022-11-28T09:12:14.421Z,5.60
2022-11-28T09:14:40.997Z,5.60
2022-11-28T09:17:07.561Z,5.40
2022-11-28T09:19:34.173Z,5.70
2022-11-28T09:22:00.592Z,5.50
2022-11-28T09:24:27.071Z,5.60
2022-11-28T09:26:53.595Z,5.70
2022-11-28T09:29:20.057Z,5.70
2022-11-28T09:31:47.683Z,5.90
2022-11-28T09:34:14.589Z,5.90
2022-11-28T09:36:41.883Z,5.90
2022-11-28T09:39:08.496Z,5.90
2022-11-28T09:41:42.272Z,5.80
2022-11-28T09:44:18.474Z,5.80
2022-11-28T09:46:47.587Z,5.90
2022-11-28T09:49:41.182Z,5.80
2022-11-28T09:52:30.044Z,6.10
2022-11-28T09:55:21.542Z,5.90
2022-11-28T09:57:50.530Z,6.20
2022-11-28T10:00:22.944Z,6.10
2022-11-28T10:03:17.282Z,6.20
2022-11-28T10:06:05.063Z,6.30
2022-11-28T10:09:09.135Z,6.30
2022-11-28T10:11:54.607Z,6.10
2022-11-28T10:14:38.308Z,6.00
2022-11-28T10:17:22.525Z,6.20
2022-11-28T10:20:12.334Z,5.90
2022-11-28T10:22:59.083Z,6.00
2022-11-28T10:25:32.703Z,6.00
2022-11-28T10:27:59.460Z,6.20
2022-11-28T10:30:28.822Z,6.10
2022-11-28T10:33:09.464Z,6.20
2022-11-28T10:35:59.317Z,6.30
2022-11-28T10:38:27.871Z,6.20
2022-11-28T10:41:17.021Z,6.20
2022-11-28T10:44:05.420Z,6.20
2022-11-28T10:46:57.402Z,6.30
2022-11-28T10:49:33.275Z,6.30
2022-11-28T10:52:30.307Z,6.40
2022-11-28T10:55:17.035Z,6.50
2022-11-28T10:57:52.244Z,6.30
2022-11-28T11:00:19.721Z,6.40
2022-11-28T11:02:51.392Z,6.40
2022-11-28T11:05:19.675Z,6.40
2022-11-28T11:07:53.819Z,6.30
2022-11-28T11:10:30.692Z,6.50
2022-11-28T11:12:58.553Z,6.60
2022-11-28T11:15:32.407Z,6.60
2022-11-28T11:18:06.125Z,6.70
2022-11-28T11:20:36.659Z,6.70
2022-11-28T11:23:21.281Z,6.80
2022-11-28T11:25:58.599Z,6.70
2022-11-28T11:28:39.068Z,6.90
2022-11-28T11:31:14.932Z,7.10
2022-11-28T11:33:42.466Z,7.20
2022-11-28T11:36:25.609Z,7.30
2022-11-28T11:38:52.265Z,7.50
2022-11-28T11:41:40.348Z,7.80
2022-11-28T11:44:15.612Z,7.80
2022-11-28T11:46:57.217Z,7.40
2022-11-28T11:49:32.533Z,7.40
2022-11-28T11:52:02.190Z,7.70
2022-11-28T11:54:28.926Z,7.60
2022-11-28T11:57:17.723Z,7.60
2022-11-28T11:59:48.436Z,7.50
2022-11-28T12:02:23.976Z,7.20
2022-11-28T12:05:02.363Z,7.40
2022-11-28T12:07:39.135Z,7.30
2022-11-28T12:10:07.927Z,7.30
2022-11-28T12:12:38.246Z,7.00
2022-11-28T12:15:16.770Z,7.20
2022-11-28T12:18:12.713Z,7.10
2022-11-28T12:20:55.346Z,7.00
2022-11-28T12:23:42.228Z,7.00
2022-11-28T12:26:39.731Z,7.00
2022-11-28T12:32:08.407Z,6.90
2022-11-28T12:34:40.710Z,6.90
2022-11-28T12:37:33.006Z,7.10
2022-11-28T12:40:28.463Z,7.00
2022-11-28T12:43:25.206Z,6.90
2022-11-28T12:45:59.817Z,7.00
2022-11-28T12:48:41.177Z,7.00
2022-11-28T12:51:39.542Z,6.90
2022-11-28T12:54:26.493Z,6.90
2022-11-28T12:57:05.040Z,7.00
2022-11-28T12:59:49.765Z,7.10
2022-11-28T13:02:21.484Z,7.20
2022-11-28T13:05:22.448Z,7.20
2022-11-28T13:08:04.283Z,7.10
2022-11-28T13:10:59.419Z,7.00
2022-11-28T13:13:31.699Z,6.80
2022-11-28T13:16:06.286Z,6.80
2022-11-28T13:18:52.222Z,6.80
2022-11-28T13:21:46.213Z,6.70
2022-11-28T13:24:36.258Z,6.60
2022-11-28T13:27:11.407Z,6.70
2022-11-28T13:30:16.202Z,6.70
2022-11-28T13:33:44.490Z,6.60
2022-11-28T13:47:37.599Z,6.30
2022-11-28T13:50:25.899Z,6.30
2022-11-28T13:53:00.402Z,6.30
2022-11-28T13:55:36.660Z,6.20
2022-11-28T13:58:40.436Z,6.10
2022-11-28T14:01:15.847Z,6.10
2022-11-28T14:04:11.100Z,6.00
2022-11-28T14:07:03.861Z,6.00
2022-11-28T14:10:03.318Z,6.00
2022-11-28T14:12:58.819Z,6.00
2022-11-28T14:16:07.873Z,5.90
2022-11-28T14:19:03.678Z,6.00
2022-11-28T14:21:39.718Z,5.90
2022-11-28T14:24:23.014Z,5.70
2022-11-28T14:29:42.229Z,5.70
2022-11-28T14:32:43.060Z,5.60
2022-11-28T14:35:38.998Z,5.50
2022-11-28T14:38:34.822Z,5.50
2022-11-28T14:41:12.109Z,5.50
2022-11-28T14:43:48.299Z,5.40
2022-11-28T14:46:27.243Z,5.50
2022-11-28T14:49:00.078Z,5.50
2022-11-28T14:51:45.574Z,5.40
2022-11-28T14:54:35.220Z,5.30
2022-11-28T14:57:04.913Z,5.30
2022-11-28T14:59:34.847Z,5.40
2022-11-28T15:02:10.442Z,5.40
2022-11-28T15:05:14.071Z,5.30
2022-11-28T15:07:46.822Z,5.30
2022-11-28T15:10:33.674Z,5.30
2022-11-28T15:13:25.522Z,5.30
2022-11-28T15:15:53.517Z,5.20
2022-11-28T15:18:22.175Z,5.10
2022-11-28T15:20:58.868Z,5.10
2022-11-28T15:23:29.872Z,5.10
2022-11-28T15:25:58.427Z,5.10
2022-11-28T15:28:28.543Z,5.00
2022-11-28T15:30:57.906Z,5.10
2022-11-28T15:33:26.485Z,4.90
2022-11-28T15:36:12.235Z,4.90
2022-11-28T15:38:42.373Z,4.90
2022-11-28T15:41:09.959Z,4.80
2022-11-28T15:43:38.167Z,4.80
2022-11-28T15:46:06.006Z,4.80
2022-11-28T15:48:40.216Z,4.80
2022-11-28T15:51:07.424Z,4.80
2022-11-28T15:53:39.967Z,4.80
2022-11-28T15:56:16.092Z,4.80
2022-11-28T15:58:44.060Z,4.80
2022-11-28T16:01:22.433Z,4.80
2022-11-28T16:04:10.514Z,4.70
2022-11-28T16:06:38.850Z,4.70
2022-11-28T16:09:07.941Z,4.80
2022-11-28T16:11:35.713Z,4.80
2022-11-28T16:14:08.306Z,4.80
2022-11-28T16:16:37.886Z,4.80
2022-11-28T16:19:08.239Z,4.80
2022-11-28T16:21:40.296Z,4.90
2022-11-28T16:24:20.989Z,4.80
2022-11-28T16:27:01.752Z,4.80
2022-11-28T16:29:34.658Z,4.70
2022-11-28T16:32:26.001Z,4.70
2022-11-28T16:34:54.817Z,4.80
2022-11-28T16:37:24.430Z,4.70
2022-11-28T16:40:15.110Z,4.70
2022-11-28T16:42:41.861Z,4.70
2022-11-28T16:45:17.249Z,4.60
2022-11-28T16:47:44.168Z,4.70
2022-11-28T16:50:23.139Z,4.60
2022-11-28T16:52:52.253Z,4.60
2022-11-28T16:55:30.545Z,4.70
2022-11-28T16:58:07.153Z,4.70
2022-11-28T17:00:35.158Z,4.70
2022-11-28T17:03:03.420Z,4.60
2022-11-28T17:05:30.016Z,4.50
2022-11-28T17:07:56.704Z,4.50
2022-11-28T17:10:25.347Z,4.50
2022-11-28T17:12:51.847Z,4.60
2022-11-28T17:15:21.779Z,4.50
2022-11-28T17:17:48.259Z,4.60
2022-11-28T17:20:15.709Z,4.50
2022-11-28T17:22:45.024Z,4.40
2022-11-28T17:25:19.493Z,4.30
2022-11-28T17:27:46.230Z,4.40
2022-11-28T17:30:18.653Z,4.40
2022-11-28T17:32:47.989Z,4.40
2022-11-28T17:35:25.561Z,4.40
2022-11-28T17:37:52.098Z,4.40
2022-11-28T17:40:33.421Z,4.40
2022-11-28T17:43:01.122Z,4.30
2022-11-28T17:45:30.166Z,4.40
2022-11-28T17:47:56.711Z,4.40
2022-11-28T17:50:23.157Z,4.40
2022-11-28T17:52:49.641Z,4.40
2022-11-28T17:55:18.280Z,4.50
2022-11-28T17:57:44.908Z,4.40
2022-11-28T18:00:12.655Z,4.40
2022-11-28T18:02:39.352Z,4.40
2022-11-28T18:05:06.098Z,4.40
2022-11-28T18:07:32.701Z,4.40
2022-11-28T18:09:59.188Z,4.40
2022-11-28T18:12:25.736Z,4.50
2022-11-28T18:14:52.272Z,4.50
2022-11-28T18:17:18.829Z,4.50
2022-11-28T18:19:45.686Z,4.50
2022-11-28T18:22:12.708Z,4.50
2022-11-28T18:24:39.309Z,4.50
2022-11-28T18:27:05.862Z,4.40
2022-11-28T18:29:33.652Z,4.50
2022-11-28T18:32:00.591Z,4.40
2022-11-28T18:34:27.165Z,4.40
2022-11-28T18:37:00.229Z,4.30
2022-11-28T18:39:27.600Z,4.30
2022-11-28T18:41:54.114Z,4.30
2022-11-28T18:44:20.655Z,4.30
2022-11-28T18:46:47.322Z,4.30
2022-11-28T18:49:15.543Z,4.30
2022-11-28T18:51:42.220Z,4.20
2022-11-28T18:54:09.533Z,4.20
2022-11-28T18:56:38.797Z,4.20
2022-11-28T18:59:05.338Z,4.30
2022-11-28T19:01:34.363Z,4.20
2022-11-28T19:04:12.544Z,4.20
2022-11-28T19:06:40.449Z,4.20
2022-11-28T19:09:09.894Z,4.20
2022-11-28T19:11:39.956Z,4.20
2022-11-28T19:14:07.802Z,4.20
2022-11-28T19:16:37.420Z,4.20
2022-11-28T19:19:06.124Z,4.20
2022-11-28T19:21:34.702Z,4.20
2022-11-28T19:24:01.242Z,4.20
2022-11-28T19:26:29.731Z,4.20
2022-11-28T19:28:56.801Z,4.20
2022-11-28T19:31:27.232Z,4.20
2022-11-28T19:34:02.400Z,4.20
2022-11-28T19:36:33.599Z,4.20
2022-11-28T19:39:00.699Z,4.20
2022-11-28T19:41:29.409Z,4.40
2022-11-28T19:43:56.245Z,4.30
2022-11-28T19:46:22.971Z,4.40
2022-11-28T19:48:51.930Z,4.30
2022-11-28T19:51:19.182Z,4.30
2022-11-28T19:53:45.731Z,4.30
2022-11-28T19:56:15.449Z,4.30
2022-11-28T19:58:42.429Z,4.20
2022-11-28T20:01:12.293Z,4.30
2022-11-28T20:03:41.704Z,4.30
2022-11-28T20:06:23.509Z,4.30
2022-11-28T20:08:54.442Z,4.30
2022-11-28T20:11:25.601Z,4.30
2022-11-28T20:14:07.335Z,4.30
2022-11-28T20:16:35.557Z,4.40
2022-11-28T20:19:02.328Z,4.30
2022-11-28T20:21:30.265Z,4.30
2022-11-28T20:24:01.738Z,4.30
2022-11-28T20:26:29.647Z,4.20
2022-11-28T20:28:57.170Z,4.40
2022-11-28T20:31:34.396Z,4.30
2022-11-28T20:34:06.751Z,4.30
2022-11-28T20:36:34.190Z,4.30
2022-11-28T20:39:05.242Z,4.30
2022-11-28T20:41:32.432Z,4.30
2022-11-28T20:44:00.786Z,4.40
2022-11-28T20:46:30.467Z,4.40
2022-11-28T20:49:00.108Z,4.30
2022-11-28T20:51:28.907Z,4.30
2022-11-28T20:53:57.174Z,4.30
2022-11-28T20:56:26.318Z,4.20
2022-11-28T20:58:52.944Z,4.30
2022-11-28T21:01:24.957Z,4.30
2022-11-28T21:03:52.444Z,4.30
2022-11-28T21:06:19.906Z,4.30
2022-11-28T21:08:46.450Z,4.20
2022-11-28T21:11:30.535Z,4.20
2022-11-28T21:14:02.461Z,4.20
2022-11-28T21:16:31.693Z,4.20
2022-11-28T21:19:02.495Z,4.30
2022-11-28T21:21:31.340Z,4.20
2022-11-28T21:23:59.879Z,4.20
2022-11-28T21:26:30.429Z,4.10
2022-11-28T21:29:00.071Z,4.20
2022-11-28T21:31:30.100Z,4.20
2022-11-28T21:33:58.835Z,4.20
2022-11-28T21:36:27.092Z,4.20
2022-11-28T21:38:57.971Z,4.20
2022-11-28T21:41:28.854Z,4.30
2022-11-28T21:43:55.666Z,4.30
2022-11-28T21:46:22.109Z,4.30
2022-11-28T21:48:48.676Z,4.20
2022-11-28T21:51:17.115Z,4.30
2022-11-28T21:53:43.652Z,4.20
2022-11-28T21:56:11.048Z,4.20
2022-11-28T21:58:37.677Z,4.30
2022-11-28T22:01:12.033Z,4.20
2022-11-28T22:03:39.822Z,4.30
2022-11-28T22:06:09.019Z,4.20
2022-11-28T22:08:35.888Z,4.20
2022-11-28T22:11:11.199Z,4.20
2022-11-28T22:13:39.061Z,4.20
2022-11-28T22:16:10.711Z,4.20
2022-11-28T22:18:37.564Z,4.20
2022-11-28T22:21:22.362Z,4.10
2022-11-28T22:23:53.036Z,4.20
2022-11-28T22:26:19.526Z,4.20
2022-11-28T22:28:53.202Z,4.20
2022-11-28T22:31:20.467Z,4.20
2022-11-28T22:33:49.198Z,4.10
2022-11-28T22:36:17.933Z,4.10
2022-11-28T22:38:45.789Z,4.10
2022-11-28T22:41:15.370Z,4.10
2022-11-28T22:43:42.010Z,4.10
2022-11-28T22:46:09.891Z,4.10
2022-11-28T22:48:38.122Z,4.00
2022-11-28T22:51:10.990Z,4.00
2022-11-28T22:53:37.822Z,4.00
2022-11-28T22:56:10.411Z,4.00
2022-11-28T22:58:42.811Z,4.00
2022-11-28T23:01:17.244Z,3.90
2022-11-28T23:03:44.481Z,4.00
2022-11-28T23:06:14.038Z,3.90
2022-11-28T23:08:41.329Z,3.90
2022-11-28T23:11:10.289Z,3.90
2022-11-28T23:13:37.851Z,3.80
2022-11-28T23:16:25.435Z,3.80
2022-11-28T23:18:54.676Z,3.80
2022-11-28T23:21:23.081Z,3.80
2022-11-28T23:23:49.662Z,3.70
2022-11-28T23:26:21.791Z,3.70
2022-11-28T23:28:49.051Z,3.80
2022-11-28T23:31:19.497Z,3.80
2022-11-28T23:33:46.215Z,3.80
2022-11-28T23:36:18.751Z,3.70
2022-11-28T23:38:46.374Z,3.70
2022-11-28T23:41:13.475Z,3.80
2022-11-28T23:43:40.205Z,3.70
2022-11-28T23:46:08.417Z,3.70
2022-11-28T23:48:34.945Z,3.70
2022-11-28T23:51:02.910Z,3.60
2022-11-28T23:53:29.376Z,3.60
2022-11-28T23:56:02.496Z,3.60
2022-11-28T23:58:28.993Z,3.60
